Time;durP1;ratioP1;P1;durP2;ratioP2;P2;SDS_P1;SDS_P2;PMS_P1;PMS_P2;Temp;Humidity;BMP_temperature;BMP_pressure;BME280_temperature;BME280_humidity;BME280_pressure;Samples;Min_cycle;Max_cycle;Signal;HPM_P1;HPM_P2
2024/03/07 00:00:14;;;;;;;35.53;13.83;;;;;;;-145.69;77.21;52404.78;5112520;28;20201;-79
2024/03/07 00:02:42;;;;;;;35.90;14.00;;;;;;;-145.69;77.28;52406.75;5112846;28;20680;-80
2024/03/07 00:05:09;;;;;;;36.43;14.73;;;;;;;-145.69;77.20;52428.53;5112792;28;20320;-80
2024/03/07 00:07:35;;;;;;;122.00;19.33;;;;;;;-145.69;76.79;52420.63;5124083;27;20600;-79
2024/03/07 00:10:03;;;;;;;68.53;17.77;;;;;;;-145.69;76.63;52404.78;5133230;27;20226;-79
2024/03/07 00:12:29;;;;;;;53.23;15.50;;;;;;;-145.69;77.09;52390.91;5133127;28;20284;-79
2024/03/07 00:14:56;;;;;;;144.17;18.57;;;;;;;-145.69;77.30;52398.84;5116857;28;20193;-79
2024/03/07 00:17:23;;;;;;;66.30;16.57;;;;;;;-145.69;77.45;52406.75;5112638;28;20201;-79
2024/03/07 00:19:51;;;;;;;72.00;16.10;;;;;;;-145.69;77.25;52414.69;5112481;28;20204;-79
2024/03/07 00:22:17;;;;;;;90.40;18.47;;;;;;;-145.69;76.78;52383.00;5112836;28;20197;-79
2024/03/07 00:24:47;;;;;;;34.77;16.83;;;;;;;-145.69;76.75;52420.63;5112966;28;20235;-80
2024/03/07 00:27:14;;;;;;;106.00;19.30;;;;;;;-145.69;76.97;52420.63;5112810;28;20255;-79
2024/03/07 00:29:40;;;;;;;83.57;16.70;;;;;;;-145.69;77.50;52426.56;5112580;28;20213;-79
2024/03/07 00:32:07;;;;;;;40.50;15.63;;;;;;;-145.69;77.38;52400.81;5112963;28;20212;-80
2024/03/07 00:34:34;;;;;;;66.27;18.53;;;;;;;-145.69;77.58;52398.84;5112481;28;20204;-80
2024/03/07 00:37:02;;;;;;;104.37;18.37;;;;;;;-145.69;77.40;52408.75;5112382;28;20280;-79
2024/03/07 00:39:30;;;;;;;144.27;20.27;;;;;;;-145.69;77.71;52414.69;5111160;28;20247;-79
2024/03/07 00:41:56;;;;;;;73.37;17.73;;;;;;;-145.69;77.57;52398.84;5112790;28;20201;-79
2024/03/07 00:44:23;;;;;;;111.47;19.53;;;;;;;-145.69;77.19;52379.03;5112646;27;20313;-79
2024/03/07 00:46:49;;;;;;;55.50;14.43;;;;;;;-145.69;77.54;52369.13;5112212;28;20197;-78
2024/03/07 00:49:16;;;;;;;33.90;14.60;;;;;;;-145.69;77.38;52406.75;5112136;28;20197;-79
2024/03/07 00:51:43;;;;;;;94.63;19.67;;;;;;;-145.69;77.49;52384.97;5112258;28;20223;-79
2024/03/07 00:54:12;;;;;;;64.77;16.97;;;;;;;-145.69;77.74;52381.00;5112663;28;20292;-79
2024/03/07 00:56:40;;;;;;;77.73;18.73;;;;;;;-145.69;77.37;52434.47;5112428;28;20201;-79
2024/03/07 00:59:07;;;;;;;92.37;18.80;;;;;;;-145.69;77.59;52410.72;5111651;28;20193;-78
2024/03/07 01:01:36;;;;;;;33.23;14.13;;;;;;;-145.69;77.50;52404.78;5112301;28;20300;-79
2024/03/07 01:04:02;;;;;;;41.67;14.37;;;;;;;-145.69;77.22;52416.66;5112582;28;20206;-80
2024/03/07 01:06:29;;;;;;;74.47;17.80;;;;;;;-145.69;76.67;52416.66;5111930;28;20198;-79
2024/03/07 01:08:56;;;;;;;109.47;19.90;;;;;;;-145.69;76.54;52438.44;5112062;28;20197;-79
2024/03/07 01:11:24;;;;;;;66.03;17.83;;;;;;;-145.69;76.83;52402.78;5115852;28;20618;-79
2024/03/07 01:13:50;;;;;;;58.00;18.30;;;;;;;-145.69;76.66;52388.94;5115346;28;20301;-80
2024/03/07 01:16:17;;;;;;;34.27;14.63;;;;;;;-145.69;76.98;52412.69;5115869;28;20211;-79
2024/03/07 01:18:43;;;;;;;32.10;13.93;;;;;;;-145.69;77.15;52402.78;5115707;28;20547;-79
2024/03/07 01:21:10;;;;;;;36.73;15.47;;;;;;;-145.69;77.53;52392.91;5115532;28;20266;-78
2024/03/07 01:23:36;;;;;;;59.33;17.47;;;;;;;-145.69;77.36;52438.44;5115770;28;20203;-79
2024/03/07 01:26:03;;;;;;;40.30;15.77;;;;;;;-145.69;77.36;52414.69;5115784;28;20228;-79
2024/03/07 01:28:31;;;;;;;32.10;13.60;;;;;;;-145.69;77.91;52388.94;5115823;28;20197;-79
2024/03/07 01:30:59;;;;;;;37.00;15.67;;;;;;;-145.69;77.71;52408.75;5115734;28;20586;-79
2024/03/07 01:33:25;;;;;;;38.93;15.83;;;;;;;-145.69;77.03;52432.50;5115788;28;20197;-79
2024/03/07 01:35:52;;;;;;;39.60;15.73;;;;;;;-145.69;77.47;52386.97;5115534;28;20206;-79
2024/03/07 01:38:19;;;;;;;41.23;15.17;;;;;;;-145.69;77.73;52412.69;5115321;28;20194;-79
2024/03/07 01:40:45;;;;;;;37.57;15.43;;;;;;;-145.69;77.72;52422.59;5115671;28;20197;-79
2024/03/07 01:43:12;;;;;;;42.80;16.17;;;;;;;-145.69;77.59;52396.84;5115206;28;20202;-79
2024/03/07 01:45:40;;;;;;;51.33;16.23;;;;;;;-145.69;77.48;52396.84;5113696;28;20231;-80
2024/03/07 01:48:09;;;;;;;58.10;14.93;;;;;;;-145.69;77.69;52408.75;5115507;28;20197;-79
2024/03/07 01:50:39;;;;;;;38.00;14.97;;;;;;;-145.69;77.59;52402.78;5115516;28;20212;-80
2024/03/07 01:53:11;;;;;;;34.67;14.90;;;;;;;-145.69;77.15;52392.91;5115279;28;20237;-80
2024/03/07 01:55:40;;;;;;;40.60;14.47;;;;;;;-145.69;77.22;52414.69;5115167;27;20258;-81
2024/03/07 01:58:13;;;;;;;29.27;11.57;;;;;;;-145.69;77.30;52392.91;5115184;28;20658;-79
2024/03/07 02:00:44;;;;;;;33.20;13.73;;;;;;;-145.69;77.33;52373.09;5115305;28;20206;-79
2024/03/07 02:03:11;;;;;;;36.50;12.93;;;;;;;-145.69;77.54;52404.78;5115173;27;20236;-79
2024/03/07 02:05:37;;;;;;;36.20;13.83;;;;;;;-145.69;77.46;52428.53;5115204;28;20588;-80
2024/03/07 02:08:08;;;;;;;34.83;12.97;;;;;;;-145.69;77.59;52408.75;5118600;27;20193;-79
2024/03/07 02:10:35;;;;;;;27.00;11.83;;;;;;;-145.69;77.90;52388.94;5115092;28;20198;-80
2024/03/07 02:13:04;;;;;;;33.50;14.03;;;;;;;-145.69;77.50;52384.97;5114666;28;20201;-81
2024/03/07 02:15:32;;;;;;;29.80;12.30;;;;;;;-145.69;77.73;52402.78;5114629;28;20196;-80
2024/03/07 02:18:00;;;;;;;28.17;11.70;;;;;;;-145.69;77.62;52381.00;5114625;28;20613;-80
2024/03/07 02:20:28;;;;;;;36.13;13.80;;;;;;;-145.69;77.29;52402.78;5114765;28;20671;-79
2024/03/07 02:22:55;;;;;;;36.67;14.00;;;;;;;-145.69;76.93;52400.81;5113541;28;20190;-79
2024/03/07 02:25:23;;;;;;;32.97;13.63;;;;;;;-145.69;77.03;52414.69;5114487;27;20221;-79
2024/03/07 02:27:50;;;;;;;37.37;14.60;;;;;;;-145.69;76.58;52408.75;5114385;28;20197;-79
2024/03/07 02:30:18;;;;;;;32.97;13.03;;;;;;;-145.69;77.30;52454.28;5114690;28;20204;-79
2024/03/07 02:32:51;;;;;;;37.00;12.87;;;;;;;-145.69;77.00;52408.75;5114760;28;20233;-80
2024/03/07 02:35:18;;;;;;;38.53;14.13;;;;;;;-145.69;76.86;52420.63;5114256;27;20731;-79
2024/03/07 02:37:48;;;;;;;48.73;17.17;;;;;;;-145.69;77.08;52392.91;5114184;28;20671;-80
2024/03/07 02:40:17;;;;;;;49.03;17.80;;;;;;;-145.69;77.35;52432.50;5114492;28;20258;-80
2024/03/07 02:42:43;;;;;;;35.30;14.73;;;;;;;-145.69;77.35;52410.72;5114039;28;20201;-80
2024/03/07 02:45:14;;;;;;;56.17;19.17;;;;;;;-145.69;77.38;52408.75;5113670;28;20713;-80
2024/03/07 02:47:41;;;;;;;71.33;24.03;;;;;;;-145.69;77.28;52396.84;5114220;28;20197;-79
2024/03/07 02:50:09;;;;;;;52.00;20.33;;;;;;;-145.69;77.00;52426.56;5114636;28;20250;-79
2024/03/07 02:52:36;;;;;;;61.77;22.10;;;;;;;-145.69;76.41;52396.84;5113607;28;20229;-79
2024/03/07 02:55:04;;;;;;;47.27;18.43;;;;;;;-145.69;76.67;52448.34;5114088;28;20572;-80
2024/03/07 02:57:33;;;;;;;39.73;16.13;;;;;;;-145.69;76.77;52432.50;5113791;28;20193;-80
2024/03/07 03:00:00;;;;;;;58.13;21.67;;;;;;;-145.69;76.71;52426.56;5113536;28;20205;-79
2024/03/07 03:02:26;;;;;;;56.40;19.83;;;;;;;-145.69;77.04;52448.34;5114385;28;20229;-79
2024/03/07 03:04:58;;;;;;;48.13;17.60;;;;;;;-145.69;77.05;52396.84;5118290;27;20228;-79
2024/03/07 03:07:27;;;;;;;54.10;20.23;;;;;;;-145.69;76.91;52396.84;5134560;27;20196;-80
2024/03/07 03:09:56;;;;;;;52.40;19.13;;;;;;;-145.69;76.76;52410.72;5134118;27;20208;-80
2024/03/07 03:12:23;;;;;;;56.67;21.50;;;;;;;-145.69;76.55;52414.69;5134390;27;20288;-80
2024/03/07 03:14:53;;;;;;;61.77;21.63;;;;;;;-145.69;76.40;52404.78;5134301;27;20204;-79
2024/03/07 03:17:21;;;;;;;50.83;18.17;;;;;;;-145.69;76.53;52373.09;5134642;27;20643;-80
2024/03/07 03:19:51;;;;;;;60.57;22.23;;;;;;;-145.69;76.63;52416.66;5134472;27;20202;-80
2024/03/07 03:22:18;;;;;;;52.07;20.87;;;;;;;-145.69;76.58;52432.50;5134184;27;20616;-79
2024/03/07 03:24:45;;;;;;;63.67;21.73;;;;;;;-145.69;76.30;52392.91;5134167;27;20200;-80
2024/03/07 03:27:12;;;;;;;67.40;23.43;;;;;;;-145.69;76.26;52416.66;5126563;27;20185;-79
2024/03/07 03:29:40;;;;;;;68.90;24.90;;;;;;;-145.69;76.29;52418.63;5113395;28;20190;-80
2024/03/07 03:32:12;;;;;;;65.87;24.30;;;;;;;-145.69;76.43;52408.75;5113569;28;20201;-79
2024/03/07 03:34:42;;;;;;;58.93;21.87;;;;;;;-145.69;76.42;52396.84;5112257;28;20197;-79
2024/03/07 03:37:09;;;;;;;45.03;18.50;;;;;;;-145.69;76.48;52390.91;5113512;28;20721;-79
2024/03/07 03:39:35;;;;;;;59.33;22.07;;;;;;;-145.69;76.42;52394.88;5112579;28;20282;-80
2024/03/07 03:42:02;;;;;;;68.67;25.13;;;;;;;-145.69;76.57;52392.91;5113204;28;20229;-79
2024/03/07 03:44:31;;;;;;;51.80;20.00;;;;;;;-145.69;76.14;52396.84;5113377;28;20208;-79
2024/03/07 03:47:03;;;;;;;56.53;20.50;;;;;;;-145.69;76.25;52420.63;5112946;27;20225;-79
2024/03/07 03:49:31;;;;;;;47.20;18.80;;;;;;;-145.69;76.84;52422.59;5113248;28;20197;-80
2024/03/07 03:51:59;;;;;;;51.03;20.33;;;;;;;-145.69;76.90;52418.63;5112926;28;20241;-80
2024/03/07 03:54:29;;;;;;;57.97;21.80;;;;;;;-145.69;76.41;52412.69;5113124;28;20197;-80
2024/03/07 03:56:55;;;;;;;70.27;25.07;;;;;;;-145.69;76.32;52424.59;5112571;27;20242;-79
2024/03/07 03:59:22;;;;;;;65.97;22.43;;;;;;;-145.69;76.49;52416.66;5113177;28;20224;-80
2024/03/07 04:01:50;;;;;;;61.83;22.33;;;;;;;-145.69;76.31;52390.91;5112870;28;20198;-79
2024/03/07 04:04:26;;;;;;;50.33;19.57;;;;;;;-145.69;75.48;52420.63;5112146;28;20643;-80
2024/03/07 04:07:01;;;;;;;53.67;19.37;;;;;;;-145.69;75.43;52416.66;5092564;28;20229;-80
2024/03/07 04:09:29;;;;;;;47.33;18.40;;;;;;;-145.69;74.80;52440.44;5092832;28;20201;-80
2024/03/07 04:11:55;;;;;;;53.97;20.50;;;;;;;-145.69;74.09;52428.53;5092602;28;20201;-79
2024/03/07 04:14:22;;;;;;;57.63;21.97;;;;;;;-145.69;73.47;52418.63;5092424;28;20202;-80
2024/03/07 04:16:48;;;;;;;59.63;22.97;;;;;;;-145.69;74.06;52424.59;5093475;28;20293;-79
2024/03/07 04:19:15;;;;;;;56.40;20.97;;;;;;;-145.69;74.19;52460.22;5112580;28;20203;-79
2024/03/07 04:21:42;;;;;;;49.47;21.07;;;;;;;-145.69;73.97;52412.69;5112795;28;20205;-79
2024/03/07 04:24:12;;;;;;;58.27;20.90;;;;;;;-145.69;73.20;52422.59;5113187;28;20197;-80
2024/03/07 04:26:41;;;;;;;60.03;20.40;;;;;;;-145.69;73.70;52428.53;5112568;28;20282;-78
2024/03/07 04:29:08;;;;;;;60.40;21.63;;;;;;;-145.69;73.34;52424.59;5112493;28;20751;-79
2024/03/07 04:31:37;;;;;;;59.63;22.13;;;;;;;-145.69;73.75;52420.63;5112701;28;20201;-79
2024/03/07 04:34:04;;;;;;;56.03;20.27;;;;;;;-145.69;73.40;52432.50;5112465;28;20205;-79
2024/03/07 04:36:34;;;;;;;46.87;17.43;;;;;;;-145.69;73.75;52448.34;5112540;28;20204;-79
2024/03/07 04:39:04;;;;;;;48.03;17.97;;;;;;;-145.69;73.57;52464.19;5112516;28;20209;-78
2024/03/07 04:41:35;;;;;;;49.67;17.10;;;;;;;-145.69;74.29;52462.22;5111497;28;20198;-79
2024/03/07 04:44:05;;;;;;;50.33;17.97;;;;;;;-145.69;74.85;52440.44;5112661;28;20258;-80
2024/03/07 04:46:31;;;;;;;66.37;22.03;;;;;;;-145.69;75.77;52428.53;5116326;28;20267;-79
2024/03/07 04:49:00;;;;;;;73.17;23.27;;;;;;;-145.69;75.83;52436.47;5116845;28;20710;-79
2024/03/07 04:51:26;;;;;;;80.83;24.60;;;;;;;-145.69;76.45;52428.53;5116683;28;20204;-79
2024/03/07 04:53:53;;;;;;;83.63;25.70;;;;;;;-145.69;76.49;52426.56;5116440;28;20205;-80
2024/03/07 04:56:22;;;;;;;85.77;25.47;;;;;;;-145.69;76.93;52432.50;5116307;28;20212;-80
2024/03/07 04:58:50;;;;;;;92.17;27.93;;;;;;;-145.69;76.21;52426.56;5115741;28;20208;-79
2024/03/07 05:01:17;;;;;;;85.93;26.50;;;;;;;-145.69;75.93;52470.13;5116116;27;20204;-79
2024/03/07 05:03:53;;;;;;;87.83;26.60;;;;;;;-145.69;76.50;52436.47;5116423;28;20533;-80
2024/03/07 05:06:20;;;;;;;76.40;25.47;;;;;;;-145.69;75.96;52414.69;5119134;27;20311;-79
2024/03/07 05:08:47;;;;;;;89.77;27.70;;;;;;;-145.69;76.26;52430.53;5116074;28;20590;-80
2024/03/07 05:11:15;;;;;;;89.53;27.77;;;;;;;-145.69;76.26;52426.56;5116128;28;20202;-79
2024/03/07 05:13:44;;;;;;;83.00;26.63;;;;;;;-145.69;75.73;52426.56;5115780;28;20301;-79
2024/03/07 05:16:12;;;;;;;68.63;25.03;;;;;;;-145.69;76.07;52398.84;5115857;28;20215;-80
2024/03/07 05:18:40;;;;;;;69.53;25.33;;;;;;;-145.69;76.24;52412.69;5115683;28;20533;-79
2024/03/07 05:23:48;;;;;;;84.93;24.63;;;;;;;-145.69;76.18;52456.28;5095341;28;20194;-79
2024/03/07 05:26:20;;;;;;;89.60;30.27;;;;;;;-145.69;75.18;52434.47;5095496;28;20233;-80
2024/03/07 05:28:48;;;;;;;78.03;29.17;;;;;;;-145.69;75.31;52404.78;5095629;28;20205;-79
2024/03/07 05:31:18;;;;;;;83.17;29.80;;;;;;;-145.69;75.33;52424.59;5095365;28;20198;-79
2024/03/07 05:33:44;;;;;;;79.43;29.70;;;;;;;-145.69;75.28;52444.38;5095146;28;20201;-80
2024/03/07 05:36:14;;;;;;;79.87;30.17;;;;;;;-145.69;75.00;52440.44;5109844;27;20229;-79
2024/03/07 05:38:44;;;;;;;78.97;28.13;;;;;;;-145.69;75.00;52436.47;5115472;28;20288;-80
2024/03/07 05:41:12;;;;;;;84.63;29.83;;;;;;;-145.69;75.01;52416.66;5115702;28;20266;-80
2024/03/07 05:43:39;;;;;;;83.03;29.80;;;;;;;-145.69;74.54;52424.59;5115696;28;20201;-80
2024/03/07 05:46:09;;;;;;;85.40;29.93;;;;;;;-145.69;75.15;52434.47;5115593;28;20225;-80
2024/03/07 05:48:37;;;;;;;77.83;30.33;;;;;;;-145.69;74.78;52438.44;5115289;28;20208;-80
2024/03/07 05:51:04;;;;;;;92.30;32.63;;;;;;;-145.69;74.51;52420.63;5114970;28;20197;-80
2024/03/07 05:53:31;;;;;;;73.60;29.73;;;;;;;-145.69;74.73;52440.44;5114987;28;20790;-80
2024/03/07 05:56:00;;;;;;;77.93;29.77;;;;;;;-145.69;73.96;52464.19;5114404;28;20568;-80
2024/03/07 05:58:27;;;;;;;82.03;31.10;;;;;;;-145.69;74.81;52436.47;5114724;28;20552;-80
2024/03/07 06:00:56;;;;;;;81.87;31.00;;;;;;;-145.69;74.43;52444.38;5115436;28;20205;-80
2024/03/07 06:03:24;;;;;;;77.63;30.97;;;;;;;-145.69;74.82;52392.91;5115432;28;20247;-80
2024/03/07 06:05:53;;;;;;;80.40;30.73;;;;;;;-145.69;74.63;52442.41;5114745;28;20286;-79
2024/03/07 06:08:21;;;;;;;77.37;31.47;;;;;;;-145.69;74.54;52424.59;5115278;28;20254;-79
2024/03/07 06:10:50;;;;;;;85.17;32.83;;;;;;;-145.69;74.55;52430.53;5114901;28;20573;-80
2024/03/07 06:13:17;;;;;;;77.57;31.53;;;;;;;-145.69;74.72;52420.63;5115127;28;20201;-79
2024/03/07 06:15:45;;;;;;;74.30;30.03;;;;;;;-145.69;74.63;52416.66;5114961;28;20201;-79
2024/03/07 06:18:13;;;;;;;80.70;32.23;;;;;;;-145.69;74.10;52424.59;5115004;28;20209;-79
2024/03/07 06:20:41;;;;;;;79.43;32.87;;;;;;;-145.69;74.26;52444.38;5114663;28;20193;-78
2024/03/07 06:23:11;;;;;;;80.30;32.20;;;;;;;-145.69;74.80;52448.34;5114511;28;20200;-80
2024/03/07 06:25:47;;;;;;;75.17;31.43;;;;;;;-145.69;74.31;52388.94;5114450;27;20211;-80
2024/03/07 06:28:14;;;;;;;76.50;30.23;;;;;;;-145.69;74.83;52440.44;5094506;28;20197;-79
2024/03/07 06:30:42;;;;;;;89.67;33.10;;;;;;;-145.69;73.92;52456.28;5094266;28;20233;-79
2024/03/07 06:33:09;;;;;;;81.47;32.00;;;;;;;-145.69;73.50;52448.34;5114427;28;20197;-79
2024/03/07 06:35:36;;;;;;;74.03;30.83;;;;;;;-145.69;73.74;52422.59;5114866;27;20198;-79
2024/03/07 06:38:08;;;;;;;76.87;31.10;;;;;;;-145.69;74.03;52450.31;5114395;28;20200;-79
2024/03/07 06:40:36;;;;;;;72.40;29.60;;;;;;;-145.69;74.73;52418.63;5114656;28;20555;-79
2024/03/07 06:43:04;;;;;;;72.37;30.00;;;;;;;-145.69;73.97;52456.28;5114097;28;20204;-79
2024/03/07 06:45:37;;;;;;;67.27;29.03;;;;;;;-145.69;73.99;52442.41;5114413;28;20262;-79
2024/03/07 06:48:07;;;;;;;73.43;30.00;;;;;;;-145.69;73.35;52491.91;5114341;27;20281;-79
2024/03/07 06:50:34;;;;;;;71.00;30.10;;;;;;;-145.69;74.01;52420.63;5114080;28;20189;-79
2024/03/07 06:53:02;;;;;;;72.60;30.13;;;;;;;-145.69;73.19;52424.59;5113858;28;20240;-79
2024/03/07 06:55:30;;;;;;;73.53;30.87;;;;;;;-145.69;73.79;52428.53;5114221;28;20247;-80
2024/03/07 06:57:58;;;;;;;87.93;33.37;;;;;;;-145.69;73.70;52428.53;5114296;28;20205;-79
2024/03/07 07:00:26;;;;;;;101.37;34.83;;;;;;;-145.69;73.67;52406.75;5114077;28;20197;-80
2024/03/07 07:02:54;;;;;;;93.30;34.70;;;;;;;-145.69;74.12;52412.69;5113871;28;20740;-79
2024/03/07 07:05:21;;;;;;;166.03;37.13;;;;;;;-145.69;72.00;52416.66;5113964;28;20193;-80
2024/03/07 07:07:48;;;;;;;114.70;36.90;;;;;;;-145.69;72.79;52430.53;5113224;28;20770;-80
2024/03/07 07:10:17;;;;;;;92.97;36.10;;;;;;;-145.69;73.47;52454.28;5113518;28;20205;-79
2024/03/07 07:12:47;;;;;;;95.97;36.23;;;;;;;-145.69;73.37;52418.63;5113960;28;20193;-79
2024/03/07 07:15:20;;;;;;;98.03;34.10;;;;;;;-145.69;74.09;52416.66;5114053;27;20529;-79
2024/03/07 07:17:48;;;;;;;120.43;36.60;;;;;;;-145.69;73.54;52396.84;5113882;28;20205;-79
2024/03/07 07:20:15;;;;;;;113.40;39.80;;;;;;;-145.69;73.03;52412.69;5112999;28;20190;-80
2024/03/07 07:22:42;;;;;;;96.37;36.83;;;;;;;-145.69;73.57;52404.78;5113593;28;20675;-79
2024/03/07 07:25:13;;;;;;;151.30;42.63;;;;;;;-145.69;72.34;52442.41;5113919;28;20197;-79
2024/03/07 07:27:45;;;;;;;102.33;36.27;;;;;;;-145.69;72.73;52438.44;5113386;28;20236;-79
2024/03/07 07:30:12;;;;;;;101.47;36.10;;;;;;;-145.69;73.42;52444.38;5114055;28;20205;-79
2024/03/07 07:32:44;;;;;;;87.33;35.03;;;;;;;-145.69;73.32;52414.69;5112661;28;20194;-79
2024/03/07 07:35:12;;;;;;;97.70;37.63;;;;;;;-145.69;73.67;52454.28;5112709;28;20208;-79
2024/03/07 07:37:40;;;;;;;104.67;40.23;;;;;;;-145.69;73.52;52408.75;5112493;28;20288;-80
2024/03/07 07:40:09;;;;;;;97.13;37.07;;;;;;;-145.69;72.86;52408.75;5130997;27;20224;-79
2024/03/07 07:42:39;;;;;;;108.53;37.03;;;;;;;-145.69;72.30;52426.56;5119854;27;20201;-80
2024/03/07 07:45:14;;;;;;;94.93;36.00;;;;;;;-145.69;72.10;52384.97;5113365;28;20206;-80
2024/03/07 07:47:52;;;;;;;91.07;36.47;;;;;;;-145.69;71.35;52388.94;5113014;28;20228;-79
2024/03/07 07:50:23;;;;;;;91.30;35.50;;;;;;;-145.69;70.45;52420.63;5113449;28;20201;-80
2024/03/07 07:52:51;;;;;;;95.28;38.20;;;;;;;-145.69;73.92;52412.69;5112817;28;20444;-79
2024/03/07 07:55:19;;;;;;;93.30;36.00;;;;;;;-145.69;70.70;52424.59;5113190;28;20197;-79
2024/03/07 07:57:46;;;;;;;85.07;36.20;;;;;;;-145.69;70.85;52434.47;5112465;28;20202;-80
2024/03/07 08:00:21;;;;;;;93.93;36.53;;;;;;;-145.69;71.79;52438.44;5113203;28;20192;-80
2024/03/07 08:02:51;;;;;;;90.43;35.27;;;;;;;-145.69;72.34;52416.66;5113141;28;20246;-80
2024/03/07 08:05:22;;;;;;;91.80;35.90;;;;;;;-145.69;70.71;52375.06;5112607;28;20564;-80
2024/03/07 08:07:50;;;;;;;91.30;36.90;;;;;;;-145.69;69.26;52468.16;5112952;28;20683;-79
2024/03/07 08:10:18;;;;;;;97.20;37.73;;;;;;;-145.69;71.04;52408.75;5113141;28;20289;-79
2024/03/07 08:12:45;;;;;;;86.33;35.87;;;;;;;-145.69;71.41;52412.69;5112978;28;20289;-79
2024/03/07 08:15:13;;;;;;;88.67;36.17;;;;;;;-145.69;70.18;52428.53;5112652;27;20656;-79
2024/03/07 08:17:46;;;;;;;89.07;36.27;;;;;;;-145.69;70.19;52400.81;5113312;28;20221;-79
2024/03/07 08:20:20;;;;;;;95.20;39.00;;;;;;;-145.69;70.43;52428.53;5116882;28;20201;-79
2024/03/07 08:22:47;;;;;;;95.70;35.83;;;;;;;-145.69;70.18;52410.72;5119961;27;20196;-80
2024/03/07 08:25:23;;;;;;;93.23;37.27;;;;;;;-145.69;69.79;52402.78;5118737;27;20201;-79
2024/03/07 08:27:54;;;;;;;82.20;35.57;;;;;;;-145.69;71.66;52410.72;5118304;27;20706;-78
2024/03/07 08:30:22;;;;;;;86.00;36.23;;;;;;;-145.69;69.51;52414.69;5119028;28;20233;-80
2024/03/07 08:32:58;;;;;;;88.33;36.33;;;;;;;-145.69;71.17;52384.97;5119706;28;20201;-79
2024/03/07 08:35:39;;;;;;;78.53;34.17;;;;;;;-145.69;69.37;52394.88;5118884;27;20212;-79
2024/03/07 08:38:12;;;;;;;77.17;33.53;;;;;;;-145.69;69.39;52438.44;5119663;28;20208;-79
2024/03/07 08:40:40;;;;;;;79.07;33.57;;;;;;;-145.69;71.45;52386.97;5119536;28;20283;-79
2024/03/07 08:43:10;;;;;;;89.77;35.10;;;;;;;-145.69;69.68;52406.75;5119612;28;20239;-78
2024/03/07 08:45:48;;;;;;;88.70;35.37;;;;;;;-145.69;71.20;52396.84;5119535;28;20208;-79
2024/03/07 08:48:17;;;;;;;81.83;35.07;;;;;;;-145.69;71.30;52400.81;5119319;28;20224;-78
2024/03/07 08:50:49;;;;;;;81.73;34.30;;;;;;;-145.69;71.57;52404.78;5119331;28;20212;-79
2024/03/07 08:53:18;;;;;;;82.80;34.43;;;;;;;-145.69;72.70;52422.59;5119064;27;20965;-80
2024/03/07 08:55:45;;;;;;;86.37;33.43;;;;;;;-145.69;71.63;52388.94;5119220;28;20228;-79
2024/03/07 08:58:14;;;;;;;77.57;32.93;;;;;;;-145.69;73.05;52383.00;5119033;28;20201;-79
2024/03/07 09:00:46;;;;;;;85.33;33.23;;;;;;;-145.69;72.51;52384.97;5119038;28;20189;-79
2024/03/07 09:03:21;;;;;;;86.90;35.13;;;;;;;-145.69;70.05;52412.69;5119191;27;20261;-79
2024/03/07 09:05:55;;;;;;;78.90;34.10;;;;;;;-145.69;70.49;52424.59;5119035;27;20213;-79
2024/03/07 09:08:24;;;;;;;74.17;32.80;;;;;;;-145.69;71.80;52388.94;5119077;27;20271;-78
2024/03/07 09:10:57;;;;;;;82.17;33.77;;;;;;;-145.69;67.72;52404.78;5118335;27;20598;-78
2024/03/07 09:13:26;;;;;;;71.27;28.53;;;;;;;-145.69;69.36;52408.75;5118862;27;20233;-77
2024/03/07 09:15:55;;;;;;;56.70;24.50;;;;;;;-145.69;70.58;52398.84;5119182;27;20198;-78
2024/03/07 09:18:28;;;;;;;58.90;23.47;;;;;;;-145.69;71.72;52365.16;5119360;27;20255;-79
2024/03/07 09:21:00;;;;;;;49.97;21.20;;;;;;;-145.69;68.25;52412.69;5119093;27;20254;-79
2024/03/07 09:23:29;;;;;;;48.57;19.50;;;;;;;-145.69;71.71;52416.66;5118931;28;20270;-79
2024/03/07 09:26:08;;;;;;;48.10;20.93;;;;;;;-145.69;71.32;52430.53;5118458;27;20276;-80
2024/03/07 09:28:55;;;;;;;54.33;21.60;;;;;;;-145.69;66.94;52402.78;5128018;27;20298;-79
2024/03/07 09:31:31;;;;;;;58.40;22.00;;;;;;;-145.69;71.74;52375.06;5116975;28;20651;-79
2024/03/07 09:34:00;;;;;;;45.77;20.33;;;;;;;-145.69;71.21;52384.97;5115455;27;20280;-79
2024/03/07 09:36:31;;;;;;;50.93;19.93;;;;;;;-145.69;68.42;52398.84;5115717;28;20197;-79
2024/03/07 09:39:00;;;;;;;47.90;20.50;;;;;;;-145.69;71.32;52377.06;5108832;27;20205;-82
2024/03/07 09:41:40;;;;;;;50.50;19.63;;;;;;;-145.69;69.66;52386.97;5094957;28;20794;-81
2024/03/07 09:44:22;;;;;;;46.80;19.10;;;;;;;-145.69;70.08;52384.97;5093823;28;20661;-83
2024/03/07 09:47:00;;;;;;;47.50;18.50;;;;;;;-145.69;68.98;52379.03;5095369;28;20205;-80
2024/03/07 09:49:33;;;;;;;48.10;19.80;;;;;;;-145.69;66.80;52388.94;5094759;28;20221;-79
2024/03/07 09:52:11;;;;;;;46.37;19.03;;;;;;;-145.69;68.75;52388.94;5095155;28;20261;-80
2024/03/07 09:54:41;;;;;;;47.03;20.10;;;;;;;-145.69;63.76;52369.13;5095134;28;20208;-80
2024/03/07 09:57:11;;;;;;;49.17;18.90;;;;;;;-145.69;68.85;52392.91;5097728;28;20572;-81
2024/03/07 09:59:45;;;;;;;45.07;20.00;;;;;;;-145.69;68.50;52377.06;5115540;28;20201;-80
2024/03/07 10:02:18;;;;;;;49.43;20.00;;;;;;;-145.69;68.32;52390.91;5115632;28;20198;-79
2024/03/07 10:04:52;;;;;;;51.73;19.77;;;;;;;-145.69;69.19;52369.13;5115131;28;20569;-80
2024/03/07 10:07:22;;;;;;;46.07;19.13;;;;;;;-145.69;65.13;52357.25;5114641;28;20682;-80
2024/03/07 10:10:05;;;;;;;47.90;19.80;;;;;;;-145.69;65.83;52361.22;5114900;28;20553;-80
2024/03/07 10:12:40;;;;;;;46.93;20.50;;;;;;;-145.69;65.31;52361.22;5114073;28;20258;-81
2024/03/07 10:15:12;;;;;;;42.43;18.93;;;;;;;-145.69;64.00;52339.44;5115199;28;20201;-80
2024/03/07 10:17:42;;;;;;;44.40;19.47;;;;;;;-145.69;64.82;52345.38;5114603;27;20201;-80
2024/03/07 10:20:16;;;;;;;37.00;17.40;;;;;;;-145.69;59.02;52341.41;5115278;28;20288;-80
2024/03/07 10:22:46;;;;;;;43.55;17.40;;;;;;;-145.69;55.96;52353.28;5115002;28;20640;-80
2024/03/07 10:25:20;;;;;;;39.03;17.48;;;;;;;-145.69;54.66;52341.41;5114576;28;20208;-80
2024/03/07 10:27:51;;;;;;;34.40;16.67;;;;;;;-145.69;55.40;52357.25;5114336;28;20224;-80
2024/03/07 10:30:21;;;;;;;37.75;16.58;;;;;;;-145.69;52.91;52329.53;5105013;28;20252;-80
2024/03/07 10:32:57;;;;;;;35.80;16.98;;;;;;;-145.69;53.50;52369.13;5112897;27;20229;-80
2024/03/07 10:35:31;;;;;;;35.15;16.30;;;;;;;-145.69;52.24;52285.97;5114840;28;20201;-80
2024/03/07 10:38:06;;;;;;;37.08;16.75;;;;;;;-145.69;50.75;52285.97;5114725;28;20201;-80
2024/03/07 10:40:35;;;;;;;41.78;19.27;;;;;;;-145.69;51.13;52341.41;5114670;27;20236;-80
2024/03/07 10:43:02;;;;;;;44.97;21.88;;;;;;;-145.69;50.54;52329.53;5114195;28;20197;-80
2024/03/07 10:45:32;;;;;;;43.83;20.73;;;;;;;-145.69;48.90;52331.50;5114707;28;20198;-81
2024/03/07 10:48:07;;;;;;;40.85;18.52;;;;;;;-145.69;50.39;52299.81;5113278;28;20286;-81
2024/03/07 10:50:57;;;;;;;40.50;20.73;;;;;;;-145.69;50.06;52323.59;5114030;28;20201;-81
2024/03/07 10:53:33;;;;;;;33.92;16.90;;;;;;;-145.69;48.44;52349.31;5114485;28;20260;-80
2024/03/07 10:56:29;;;;;;;29.20;14.65;;;;;;;-145.69;48.32;52333.47;5106722;28;20237;-80
2024/03/07 10:59:04;;;;;;;30.55;15.38;;;;;;;-145.69;47.60;52295.84;5110711;28;20284;-81
2024/03/07 11:01:36;;;;;;;29.90;13.98;;;;;;;-145.69;46.78;52333.47;5113767;28;20237;-81
2024/03/07 11:04:07;;;;;;;33.45;16.08;;;;;;;-145.69;47.13;52317.66;5112112;28;20197;-81
2024/03/07 11:06:36;;;;;;;39.08;18.50;;;;;;;-145.69;47.49;52327.53;5114045;28;20201;-80
2024/03/07 11:09:10;;;;;;;41.70;20.63;;;;;;;-145.69;46.16;52282.00;5114055;28;20274;-80
2024/03/07 11:11:40;;;;;;;39.17;18.98;;;;;;;-145.69;45.57;52293.88;5113501;28;20284;-80
2024/03/07 11:14:16;;;;;;;35.42;16.05;;;;;;;-145.69;44.56;52291.91;5113928;28;20730;-79